sensor_id;sensor_type;location;lat;lon;timestamp;pressure;altitude;pressure_sealevel;temperature;humidity
78431;BME280;67727;50.236;22.452;2024-03-25T00:00:46;98441.36;;;0.67;81.96
78431;BME280;67727;50.236;22.452;2024-03-25T00:03:33;98436.58;;;0.68;82.31
78431;BME280;67727;50.236;22.452;2024-03-25T00:06:00;98436.09;;;0.69;82.28
78431;BME280;67727;50.236;22.452;2024-03-25T00:08:27;98434.86;;;0.70;82.06
78431;BME280;67727;50.236;22.452;2024-03-25T00:10:54;98435.27;;;0.69;82.23
78431;BME280;67727;50.236;22.452;2024-03-25T00:13:21;98435.70;;;0.70;82.68
78431;BME280;67727;50.236;22.452;2024-03-25T00:15:49;98437.41;;;0.70;82.92
78431;BME280;67727;50.236;22.452;2024-03-25T00:18:15;98431.98;;;0.72;83.14
78431;BME280;67727;50.236;22.452;2024-03-25T00:20:42;98432.81;;;0.73;82.94
78431;BME280;67727;50.236;22.452;2024-03-25T00:23:09;98439.08;;;0.75;82.90
78431;BME280;67727;50.236;22.452;2024-03-25T00:25:36;98436.16;;;0.78;83.44
78431;BME280;67727;50.236;22.452;2024-03-25T00:28:03;98435.58;;;0.80;83.19
78431;BME280;67727;50.236;22.452;2024-03-25T00:30:30;98433.90;;;0.86;83.56
78431;BME280;67727;50.236;22.452;2024-03-25T00:32:57;98428.70;;;0.91;83.52
78431;BME280;67727;50.236;22.452;2024-03-25T00:35:24;98426.55;;;0.95;83.32
78431;BME280;67727;50.236;22.452;2024-03-25T00:37:51;98424.61;;;1.01;83.39
78431;BME280;67727;50.236;22.452;2024-03-25T00:40:18;98420.80;;;1.08;83.54
78431;BME280;67727;50.236;22.452;2024-03-25T00:42:45;98421.27;;;1.13;83.35
78431;BME280;67727;50.236;22.452;2024-03-25T00:45:13;98417.75;;;1.19;83.03
78431;BME280;67727;50.236;22.452;2024-03-25T00:47:40;98417.14;;;1.24;82.86
78431;BME280;67727;50.236;22.452;2024-03-25T00:50:07;98417.68;;;1.29;83.05
78431;BME280;67727;50.236;22.452;2024-03-25T00:52:34;98414.50;;;1.33;83.13
78431;BME280;67727;50.236;22.452;2024-03-25T00:55:01;98421.74;;;1.32;82.76
78431;BME280;67727;50.236;22.452;2024-03-25T00:57:28;98426.75;;;1.29;82.86
78431;BME280;67727;50.236;22.452;2024-03-25T00:59:56;98425.70;;;1.27;82.96
78431;BME280;67727;50.236;22.452;2024-03-25T01:02:23;98419.17;;;1.28;83.11
78431;BME280;67727;50.236;22.452;2024-03-25T01:04:49;98421.10;;;1.29;83.06
78431;BME280;67727;50.236;22.452;2024-03-25T01:07:16;98428.16;;;1.30;82.92
78431;BME280;67727;50.236;22.452;2024-03-25T01:09:43;98425.59;;;1.31;82.91
78431;BME280;67727;50.236;22.452;2024-03-25T01:12:10;98427.96;;;1.32;82.77
78431;BME280;67727;50.236;22.452;2024-03-25T01:14:36;98427.59;;;1.34;82.50
78431;BME280;67727;50.236;22.452;2024-03-25T01:17:03;98425.09;;;1.37;82.59
78431;BME280;67727;50.236;22.452;2024-03-25T01:19:30;98420.83;;;1.40;82.88
78431;BME280;67727;50.236;22.452;2024-03-25T01:21:57;98421.98;;;1.42;82.78
78431;BME280;67727;50.236;22.452;2024-03-25T01:24:24;98417.77;;;1.46;82.81
78431;BME280;67727;50.236;22.452;2024-03-25T01:26:51;98419.27;;;1.49;82.68
78431;BME280;67727;50.236;22.452;2024-03-25T01:29:18;98417.98;;;1.51;82.86
78431;BME280;67727;50.236;22.452;2024-03-25T01:31:45;98413.95;;;1.51;83.10
78431;BME280;67727;50.236;22.452;2024-03-25T01:34:12;98416.30;;;1.52;82.57
78431;BME280;67727;50.236;22.452;2024-03-25T01:36:38;98416.27;;;1.54;82.35
78431;BME280;67727;50.236;22.452;2024-03-25T01:39:06;98411.96;;;1.55;82.40
78431;BME280;67727;50.236;22.452;2024-03-25T01:41:32;98413.55;;;1.51;82.76
78431;BME280;67727;50.236;22.452;2024-03-25T01:43:59;98416.67;;;1.50;82.69
78431;BME280;67727;50.236;22.452;2024-03-25T01:46:26;98418.92;;;1.48;82.62
78431;BME280;67727;50.236;22.452;2024-03-25T01:48:54;98415.03;;;1.44;82.67
78431;BME280;67727;50.236;22.452;2024-03-25T01:51:25;98415.42;;;1.40;82.77
78431;BME280;67727;50.236;22.452;2024-03-25T01:53:53;98413.99;;;1.38;83.00
78431;BME280;67727;50.236;22.452;2024-03-25T01:56:23;98413.06;;;1.35;83.30
78431;BME280;67727;50.236;22.452;2024-03-25T01:58:50;98414.11;;;1.33;83.14
78431;BME280;67727;50.236;22.452;2024-03-25T02:01:18;98410.13;;;1.33;83.75
78431;BME280;67727;50.236;22.452;2024-03-25T02:03:45;98408.63;;;1.32;83.47
78431;BME280;67727;50.236;22.452;2024-03-25T02:06:15;98410.33;;;1.33;83.84
78431;BME280;67727;50.236;22.452;2024-03-25T02:08:44;98408.36;;;1.33;83.79
78431;BME280;67727;50.236;22.452;2024-03-25T02:11:11;98415.98;;;1.34;83.83
78431;BME280;67727;50.236;22.452;2024-03-25T02:13:39;98416.40;;;1.36;83.90
78431;BME280;67727;50.236;22.452;2024-03-25T02:16:06;98412.89;;;1.41;83.70
78431;BME280;67727;50.236;22.452;2024-03-25T02:18:33;98426.27;;;1.47;84.16
78431;BME280;67727;50.236;22.452;2024-03-25T02:21:00;98420.89;;;1.50;83.80
78431;BME280;67727;50.236;22.452;2024-03-25T02:23:27;98419.16;;;1.53;83.67
78431;BME280;67727;50.236;22.452;2024-03-25T02:25:55;98422.70;;;1.56;83.59
78431;BME280;67727;50.236;22.452;2024-03-25T02:28:21;98422.73;;;1.59;83.82
78431;BME280;67727;50.236;22.452;2024-03-25T02:30:48;98425.98;;;1.61;83.70
78431;BME280;67727;50.236;22.452;2024-03-25T02:33:15;98422.42;;;1.66;83.86
78431;BME280;67727;50.236;22.452;2024-03-25T02:35:43;98417.85;;;1.70;83.48
78431;BME280;67727;50.236;22.452;2024-03-25T02:38:11;98418.58;;;1.71;83.54
78431;BME280;67727;50.236;22.452;2024-03-25T02:40:38;98418.70;;;1.70;83.41
78431;BME280;67727;50.236;22.452;2024-03-25T02:43:05;98419.58;;;1.68;84.07
78431;BME280;67727;50.236;22.452;2024-03-25T02:45:33;98421.02;;;1.68;83.92
78431;BME280;67727;50.236;22.452;2024-03-25T02:48:00;98416.52;;;1.69;83.71
78431;BME280;67727;50.236;22.452;2024-03-25T02:50:27;98416.35;;;1.73;84.17
78431;BME280;67727;50.236;22.452;2024-03-25T02:52:54;98410.75;;;1.75;84.36
78431;BME280;67727;50.236;22.452;2024-03-25T02:55:20;98406.57;;;1.76;84.15
78431;BME280;67727;50.236;22.452;2024-03-25T02:57:47;98410.11;;;1.79;84.18
78431;BME280;67727;50.236;22.452;2024-03-25T03:00:14;98407.98;;;1.80;83.43
78431;BME280;67727;50.236;22.452;2024-03-25T03:02:41;98406.54;;;1.80;83.28
78431;BME280;67727;50.236;22.452;2024-03-25T03:05:08;98409.54;;;1.78;83.47
78431;BME280;67727;50.236;22.452;2024-03-25T03:07:35;98403.98;;;1.73;83.86
78431;BME280;67727;50.236;22.452;2024-03-25T03:10:01;98399.43;;;1.68;83.49
78431;BME280;67727;50.236;22.452;2024-03-25T03:12:28;98399.40;;;1.64;83.55
78431;BME280;67727;50.236;22.452;2024-03-25T03:14:55;98404.10;;;1.59;83.74
78431;BME280;67727;50.236;22.452;2024-03-25T03:17:22;98405.05;;;1.57;83.63
78431;BME280;67727;50.236;22.452;2024-03-25T03:19:49;98407.15;;;1.53;84.04
78431;BME280;67727;50.236;22.452;2024-03-25T03:22:16;98407.90;;;1.51;83.85
78431;BME280;67727;50.236;22.452;2024-03-25T03:24:43;98411.02;;;1.51;84.15
78431;BME280;67727;50.236;22.452;2024-03-25T03:27:10;98417.96;;;1.53;84.36
78431;BME280;67727;50.236;22.452;2024-03-25T03:29:36;98414.64;;;1.55;84.27
78431;BME280;67727;50.236;22.452;2024-03-25T03:32:04;98415.98;;;1.57;84.53
78431;BME280;67727;50.236;22.452;2024-03-25T03:34:31;98414.09;;;1.57;83.72
78431;BME280;67727;50.236;22.452;2024-03-25T03:36:58;98412.40;;;1.58;84.04
78431;BME280;67727;50.236;22.452;2024-03-25T03:39:24;98414.33;;;1.59;83.78
78431;BME280;67727;50.236;22.452;2024-03-25T03:41:51;98415.11;;;1.60;83.49
78431;BME280;67727;50.236;22.452;2024-03-25T03:44:18;98416.59;;;1.61;83.56
78431;BME280;67727;50.236;22.452;2024-03-25T03:46:45;98421.48;;;1.61;83.19
78431;BME280;67727;50.236;22.452;2024-03-25T03:49:11;98424.73;;;1.60;83.39
78431;BME280;67727;50.236;22.452;2024-03-25T03:51:38;98424.36;;;1.58;83.53
78431;BME280;67727;50.236;22.452;2024-03-25T03:54:05;98418.59;;;1.55;83.67
78431;BME280;67727;50.236;22.452;2024-03-25T03:56:32;98417.80;;;1.51;83.91
78431;BME280;67727;50.236;22.452;2024-03-25T03:58:58;98415.65;;;1.46;83.99
78431;BME280;67727;50.236;22.452;2024-03-25T04:01:25;98414.86;;;1.42;84.11
78431;BME280;67727;50.236;22.452;2024-03-25T04:03:52;98412.55;;;1.39;83.98
78431;BME280;67727;50.236;22.452;2024-03-25T04:06:18;98409.98;;;1.38;84.32
78431;BME280;67727;50.236;22.452;2024-03-25T04:08:45;98409.42;;;1.35;84.22
78431;BME280;67727;50.236;22.452;2024-03-25T04:11:12;98412.30;;;1.32;84.39
78431;BME280;67727;50.236;22.452;2024-03-25T04:13:39;98410.89;;;1.30;84.14
78431;BME280;67727;50.236;22.452;2024-03-25T04:16:06;98406.40;;;1.30;84.30
78431;BME280;67727;50.236;22.452;2024-03-25T04:18:33;98404.98;;;1.29;84.56
78431;BME280;67727;50.236;22.452;2024-03-25T04:21:00;98401.68;;;1.27;84.43
78431;BME280;67727;50.236;22.452;2024-03-25T04:23:27;98398.52;;;1.25;84.36
78431;BME280;67727;50.236;22.452;2024-03-25T04:25:54;98398.27;;;1.23;84.42
78431;BME280;67727;50.236;22.452;2024-03-25T04:28:21;98401.77;;;1.19;84.75
78431;BME280;67727;50.236;22.452;2024-03-25T04:30:54;98404.64;;;1.16;84.70
78431;BME280;67727;50.236;22.452;2024-03-25T04:33:21;98408.61;;;1.11;84.85
78431;BME280;67727;50.236;22.452;2024-03-25T04:35:48;98408.86;;;1.07;84.61
78431;BME280;67727;50.236;22.452;2024-03-25T04:38:18;98411.63;;;1.03;85.18
78431;BME280;67727;50.236;22.452;2024-03-25T04:40:45;98416.77;;;1.03;84.90
78431;BME280;67727;50.236;22.452;2024-03-25T04:43:12;98421.39;;;1.02;84.92
78431;BME280;67727;50.236;22.452;2024-03-25T04:45:38;98419.83;;;1.01;85.07
78431;BME280;67727;50.236;22.452;2024-03-25T04:48:06;98423.68;;;1.03;85.36
78431;BME280;67727;50.236;22.452;2024-03-25T04:50:34;98426.72;;;1.04;85.33
78431;BME280;67727;50.236;22.452;2024-03-25T04:53:01;98429.05;;;1.07;85.23
78431;BME280;67727;50.236;22.452;2024-03-25T04:55:28;98433.73;;;1.10;85.37
78431;BME280;67727;50.236;22.452;2024-03-25T04:57:55;98432.88;;;1.12;85.26
78431;BME280;67727;50.236;22.452;2024-03-25T05:00:22;98431.60;;;1.15;85.08
78431;BME280;67727;50.236;22.452;2024-03-25T05:02:49;98431.10;;;1.16;85.23
78431;BME280;67727;50.236;22.452;2024-03-25T05:05:16;98432.86;;;1.20;85.36
78431;BME280;67727;50.236;22.452;2024-03-25T05:07:43;98431.02;;;1.22;85.32
78431;BME280;67727;50.236;22.452;2024-03-25T05:10:09;98429.05;;;1.26;85.52
78431;BME280;67727;50.236;22.452;2024-03-25T05:12:38;98427.28;;;1.30;85.38
78431;BME280;67727;50.236;22.452;2024-03-25T05:15:05;98428.01;;;1.33;85.33
78431;BME280;67727;50.236;22.452;2024-03-25T05:17:32;98428.05;;;1.37;85.21
78431;BME280;67727;50.236;22.452;2024-03-25T05:19:59;98428.45;;;1.40;85.43
78431;BME280;67727;50.236;22.452;2024-03-25T05:22:26;98429.38;;;1.45;85.51
78431;BME280;67727;50.236;22.452;2024-03-25T05:24:52;98430.45;;;1.48;85.52
78431;BME280;67727;50.236;22.452;2024-03-25T05:27:19;98429.36;;;1.52;85.33
78431;BME280;67727;50.236;22.452;2024-03-25T05:29:46;98434.63;;;1.57;85.53
78431;BME280;67727;50.236;22.452;2024-03-25T05:32:13;98435.23;;;1.61;85.65
78431;BME280;67727;50.236;22.452;2024-03-25T05:34:39;98435.08;;;1.66;85.46
78431;BME280;67727;50.236;22.452;2024-03-25T05:37:06;98436.20;;;1.71;85.64
78431;BME280;67727;50.236;22.452;2024-03-25T05:39:33;98432.06;;;1.74;85.24
78431;BME280;67727;50.236;22.452;2024-03-25T05:42:00;98435.66;;;1.76;85.30
78431;BME280;67727;50.236;22.452;2024-03-25T05:44:26;98439.52;;;1.79;85.29
78431;BME280;67727;50.236;22.452;2024-03-25T05:46:53;98442.75;;;1.83;85.34
78431;BME280;67727;50.236;22.452;2024-03-25T05:49:20;98447.77;;;1.87;85.27
78431;BME280;67727;50.236;22.452;2024-03-25T05:51:47;98451.12;;;1.93;85.19
78431;BME280;67727;50.236;22.452;2024-03-25T05:54:14;98450.81;;;1.98;85.28
78431;BME280;67727;50.236;22.452;2024-03-25T05:56:41;98452.58;;;2.01;85.23
78431;BME280;67727;50.236;22.452;2024-03-25T05:59:07;98449.70;;;2.02;84.60
78431;BME280;67727;50.236;22.452;2024-03-25T06:01:34;98450.85;;;2.02;84.55
78431;BME280;67727;50.236;22.452;2024-03-25T06:04:03;98450.30;;;2.04;84.96
78431;BME280;67727;50.236;22.452;2024-03-25T06:06:30;98450.33;;;2.07;84.96
78431;BME280;67727;50.236;22.452;2024-03-25T06:08:57;98452.33;;;2.12;84.74
78431;BME280;67727;50.236;22.452;2024-03-25T06:11:24;98452.16;;;2.17;84.80
78431;BME280;67727;50.236;22.452;2024-03-25T06:13:51;98459.57;;;2.23;84.82
78431;BME280;67727;50.236;22.452;2024-03-25T06:16:18;98459.24;;;2.28;84.83
78431;BME280;67727;50.236;22.452;2024-03-25T06:18:44;98454.45;;;2.34;84.88
78431;BME280;67727;50.236;22.452;2024-03-25T06:21:11;98458.73;;;2.41;84.80
78431;BME280;67727;50.236;22.452;2024-03-25T06:23:39;98458.71;;;2.51;85.17
78431;BME280;67727;50.236;22.452;2024-03-25T06:26:07;98458.41;;;2.60;85.42
78431;BME280;67727;50.236;22.452;2024-03-25T06:28:33;98459.48;;;2.70;85.28
78431;BME280;67727;50.236;22.452;2024-03-25T06:31:00;98459.42;;;2.82;85.42
78431;BME280;67727;50.236;22.452;2024-03-25T06:33:46;98460.39;;;2.98;85.67
78431;BME280;67727;50.236;22.452;2024-03-25T06:36:31;98465.48;;;3.13;85.09
78431;BME280;67727;50.236;22.452;2024-03-25T06:38:58;98468.75;;;3.27;85.14
78431;BME280;67727;50.236;22.452;2024-03-25T06:41:25;98469.89;;;3.41;84.88
78431;BME280;67727;50.236;22.452;2024-03-25T06:43:52;98467.88;;;3.53;84.56
78431;BME280;67727;50.236;22.452;2024-03-25T06:46:19;98470.64;;;3.64;84.20
78431;BME280;67727;50.236;22.452;2024-03-25T06:48:45;98471.56;;;3.75;84.19
78431;BME280;67727;50.236;22.452;2024-03-25T06:51:13;98473.79;;;3.86;84.59
78431;BME280;67727;50.236;22.452;2024-03-25T06:53:40;98474.31;;;4.01;84.74
78431;BME280;67727;50.236;22.452;2024-03-25T06:56:06;98478.61;;;4.13;84.24
78431;BME280;67727;50.236;22.452;2024-03-25T06:58:33;98473.77;;;4.24;84.00
78431;BME280;67727;50.236;22.452;2024-03-25T07:01:05;98477.42;;;4.37;84.36
78431;BME280;67727;50.236;22.452;2024-03-25T07:03:32;98474.96;;;4.51;84.26
78431;BME280;67727;50.236;22.452;2024-03-25T07:06:00;98477.61;;;4.66;83.22
78431;BME280;67727;50.236;22.452;2024-03-25T07:08:27;98479.31;;;4.80;83.33
78431;BME280;67727;50.236;22.452;2024-03-25T07:10:54;98480.66;;;4.97;83.07
78431;BME280;67727;50.236;22.452;2024-03-25T07:13:22;98482.75;;;5.12;82.80
78431;BME280;67727;50.236;22.452;2024-03-25T07:15:49;98479.13;;;5.27;82.38
78431;BME280;67727;50.236;22.452;2024-03-25T07:18:16;98476.48;;;5.41;81.41
78431;BME280;67727;50.236;22.452;2024-03-25T07:20:44;98475.16;;;5.55;81.18
78431;BME280;67727;50.236;22.452;2024-03-25T07:23:11;98470.59;;;5.68;80.41
78431;BME280;67727;50.236;22.452;2024-03-25T07:25:38;98474.44;;;5.83;79.63
78431;BME280;67727;50.236;22.452;2024-03-25T07:28:06;98474.38;;;5.96;79.37
78431;BME280;67727;50.236;22.452;2024-03-25T07:30:34;98472.97;;;6.15;79.68
78431;BME280;67727;50.236;22.452;2024-03-25T07:33:01;98475.66;;;6.37;79.12
78431;BME280;67727;50.236;22.452;2024-03-25T07:35:29;98477.23;;;6.55;78.05
78431;BME280;67727;50.236;22.452;2024-03-25T07:37:55;98474.59;;;6.71;77.08
78431;BME280;67727;50.236;22.452;2024-03-25T07:40:23;98476.77;;;6.84;76.63
78431;BME280;67727;50.236;22.452;2024-03-25T07:42:49;98476.70;;;6.95;75.50
78431;BME280;67727;50.236;22.452;2024-03-25T07:45:16;98482.01;;;7.03;73.92
78431;BME280;67727;50.236;22.452;2024-03-25T07:47:43;98480.88;;;7.14;74.23
78431;BME280;67727;50.236;22.452;2024-03-25T07:50:10;98481.73;;;7.23;73.14
78431;BME280;67727;50.236;22.452;2024-03-25T07:52:37;98483.64;;;7.35;74.20
78431;BME280;67727;50.236;22.452;2024-03-25T07:55:07;98481.27;;;7.49;73.75
78431;BME280;67727;50.236;22.452;2024-03-25T07:57:34;98485.98;;;7.60;73.52
78431;BME280;67727;50.236;22.452;2024-03-25T08:00:02;98489.85;;;7.74;72.99
78431;BME280;67727;50.236;22.452;2024-03-25T08:02:32;98487.33;;;7.85;71.80
78431;BME280;67727;50.236;22.452;2024-03-25T08:04:58;98488.70;;;7.94;71.73
78431;BME280;67727;50.236;22.452;2024-03-25T08:07:25;98486.17;;;8.01;70.58
78431;BME280;67727;50.236;22.452;2024-03-25T08:09:52;98486.73;;;8.10;70.42
78431;BME280;67727;50.236;22.452;2024-03-25T08:12:19;98483.75;;;8.17;71.07
78431;BME280;67727;50.236;22.452;2024-03-25T08:14:46;98484.97;;;8.24;70.73
78431;BME280;67727;50.236;22.452;2024-03-25T08:17:13;98489.13;;;8.33;70.69
78431;BME280;67727;50.236;22.452;2024-03-25T08:19:39;98487.92;;;8.41;70.81
78431;BME280;67727;50.236;22.452;2024-03-25T08:22:06;98488.84;;;8.55;70.97
78431;BME280;67727;50.236;22.452;2024-03-25T08:24:33;98491.05;;;8.69;71.32
78431;BME280;67727;50.236;22.452;2024-03-25T08:27:00;98491.55;;;8.85;70.83
78431;BME280;67727;50.236;22.452;2024-03-25T08:29:26;98489.02;;;8.98;70.16
78431;BME280;67727;50.236;22.452;2024-03-25T08:31:53;98487.28;;;9.09;69.74
78431;BME280;67727;50.236;22.452;2024-03-25T08:34:20;98488.54;;;9.18;69.37
78431;BME280;67727;50.236;22.452;2024-03-25T08:36:46;98481.27;;;9.26;67.84
78431;BME280;67727;50.236;22.452;2024-03-25T08:39:13;98481.88;;;9.33;68.31
78431;BME280;67727;50.236;22.452;2024-03-25T08:41:40;98485.73;;;9.41;67.98
78431;BME280;67727;50.236;22.452;2024-03-25T08:44:07;98487.06;;;9.49;67.32
78431;BME280;67727;50.236;22.452;2024-03-25T08:46:34;98482.81;;;9.52;65.48
78431;BME280;67727;50.236;22.452;2024-03-25T08:49:02;98484.11;;;9.60;66.11
78431;BME280;67727;50.236;22.452;2024-03-25T08:51:28;98485.19;;;9.64;66.24
78431;BME280;67727;50.236;22.452;2024-03-25T08:53:55;98493.27;;;9.70;65.18
78431;BME280;67727;50.236;22.452;2024-03-25T08:56:22;98493.38;;;9.95;66.59
78431;BME280;67727;50.236;22.452;2024-03-25T08:58:49;98490.15;;;10.24;66.03
78431;BME280;67727;50.236;22.452;2024-03-25T09:01:15;98486.94;;;10.52;65.00
78431;BME280;67727;50.236;22.452;2024-03-25T09:03:42;98486.48;;;10.78;64.49
78431;BME280;67727;50.236;22.452;2024-03-25T09:06:11;98489.11;;;11.00;62.77
78431;BME280;67727;50.236;22.452;2024-03-25T09:08:37;98493.71;;;11.25;63.16
78431;BME280;67727;50.236;22.452;2024-03-25T09:11:24;98492.34;;;11.43;61.68
78431;BME280;67727;50.236;22.452;2024-03-25T09:13:51;98496.90;;;11.50;61.11
78431;BME280;67727;50.236;22.452;2024-03-25T09:16:18;98493.02;;;11.63;60.13
78431;BME280;67727;50.236;22.452;2024-03-25T09:18:45;98496.45;;;11.74;60.03
78431;BME280;67727;50.236;22.452;2024-03-25T09:21:12;98490.42;;;11.95;60.00
78431;BME280;67727;50.236;22.452;2024-03-25T09:23:40;98488.39;;;12.16;58.17
78431;BME280;67727;50.236;22.452;2024-03-25T09:26:06;98488.89;;;12.20;57.65
78431;BME280;67727;50.236;22.452;2024-03-25T09:28:33;98487.25;;;12.14;57.51
78431;BME280;67727;50.236;22.452;2024-03-25T09:31:00;98488.04;;;12.14;57.25
78431;BME280;67727;50.236;22.452;2024-03-25T09:33:27;98486.44;;;12.21;57.34
78431;BME280;67727;50.236;22.452;2024-03-25T09:35:53;98484.89;;;12.35;55.88
78431;BME280;67727;50.236;22.452;2024-03-25T09:38:20;98487.44;;;12.48;56.22
78431;BME280;67727;50.236;22.452;2024-03-25T09:40:47;98482.08;;;12.57;55.09
78431;BME280;67727;50.236;22.452;2024-03-25T09:43:23;98484.66;;;12.65;55.34
78431;BME280;67727;50.236;22.452;2024-03-25T09:45:52;98482.73;;;12.78;55.68
78431;BME280;67727;50.236;22.452;2024-03-25T09:48:21;98481.81;;;12.91;55.31
78431;BME280;67727;50.236;22.452;2024-03-25T09:50:49;98483.22;;;12.90;53.94
78431;BME280;67727;50.236;22.452;2024-03-25T09:53:16;98482.24;;;12.85;54.85
78431;BME280;67727;50.236;22.452;2024-03-25T09:55:43;98481.17;;;12.83;54.64
78431;BME280;67727;50.236;22.452;2024-03-25T09:58:10;98481.70;;;12.78;53.99
78431;BME280;67727;50.236;22.452;2024-03-25T10:00:37;98485.36;;;12.72;53.24
78431;BME280;67727;50.236;22.452;2024-03-25T10:03:04;98483.44;;;12.65;53.19
78431;BME280;67727;50.236;22.452;2024-03-25T10:05:32;98481.59;;;12.56;53.40
78431;BME280;67727;50.236;22.452;2024-03-25T10:07:59;98481.50;;;12.48;53.36
78431;BME280;67727;50.236;22.452;2024-03-25T10:10:26;98483.45;;;12.40;52.98
78431;BME280;67727;50.236;22.452;2024-03-25T10:12:56;98482.98;;;12.32;53.75
78431;BME280;67727;50.236;22.452;2024-03-25T10:15:23;98480.77;;;12.28;53.81
78431;BME280;67727;50.236;22.452;2024-03-25T10:17:50;98482.59;;;12.26;54.19
78431;BME280;67727;50.236;22.452;2024-03-25T10:20:18;98481.94;;;12.22;53.82
78431;BME280;67727;50.236;22.452;2024-03-25T10:22:46;98481.11;;;12.12;52.94
78431;BME280;67727;50.236;22.452;2024-03-25T10:25:22;98480.02;;;11.97;53.27
78431;BME280;67727;50.236;22.452;2024-03-25T10:30:23;98487.55;;;11.69;54.56
78431;BME280;67727;50.236;22.452;2024-03-25T10:33:06;98488.52;;;11.54;53.69
78431;BME280;67727;50.236;22.452;2024-03-25T10:35:35;98486.34;;;11.33;53.16
78431;BME280;67727;50.236;22.452;2024-03-25T10:38:04;98486.08;;;11.14;53.47
78431;BME280;67727;50.236;22.452;2024-03-25T10:40:36;98486.64;;;10.97;54.04
78431;BME280;67727;50.236;22.452;2024-03-25T10:43:07;98490.31;;;10.81;54.92
78431;BME280;67727;50.236;22.452;2024-03-25T10:48:16;98485.22;;;10.52;54.86
78431;BME280;67727;50.236;22.452;2024-03-25T10:50:44;98485.55;;;10.40;55.27
78431;BME280;67727;50.236;22.452;2024-03-25T10:53:14;98485.61;;;10.31;56.05
78431;BME280;67727;50.236;22.452;2024-03-25T10:55:47;98489.17;;;10.22;55.45
78431;BME280;67727;50.236;22.452;2024-03-25T10:58:17;98488.80;;;10.16;55.71
78431;BME280;67727;50.236;22.452;2024-03-25T11:00:46;98488.48;;;10.12;56.61
78431;BME280;67727;50.236;22.452;2024-03-25T11:03:15;98487.13;;;10.11;56.02
78431;BME280;67727;50.236;22.452;2024-03-25T11:05:42;98484.71;;;10.15;56.09
78431;BME280;67727;50.236;22.452;2024-03-25T11:08:17;98484.93;;;10.22;57.01
78431;BME280;67727;50.236;22.452;2024-03-25T11:10:46;98486.26;;;10.37;56.70
78431;BME280;67727;50.236;22.452;2024-03-25T11:13:16;98484.33;;;10.53;56.12
78431;BME280;67727;50.236;22.452;2024-03-25T11:15:45;98485.45;;;10.67;56.44
78431;BME280;67727;50.236;22.452;2024-03-25T11:18:13;98484.07;;;10.79;55.29
78431;BME280;67727;50.236;22.452;2024-03-25T11:20:40;98484.30;;;10.86;55.40
78431;BME280;67727;50.236;22.452;2024-03-25T11:23:11;98488.35;;;10.94;55.19
78431;BME280;67727;50.236;22.452;2024-03-25T11:25:39;98485.94;;;10.99;54.95
78431;BME280;67727;50.236;22.452;2024-03-25T11:28:06;98482.86;;;10.94;52.19
78431;BME280;67727;50.236;22.452;2024-03-25T11:30:34;98479.41;;;10.84;53.17
78431;BME280;67727;50.236;22.452;2024-03-25T11:33:03;98480.40;;;10.78;54.11
78431;BME280;67727;50.236;22.452;2024-03-25T11:35:38;98480.02;;;10.70;54.18
78431;BME280;67727;50.236;22.452;2024-03-25T11:38:05;98480.77;;;10.57;53.63
78431;BME280;67727;50.236;22.452;2024-03-25T11:40:32;98482.95;;;10.41;53.47
78431;BME280;67727;50.236;22.452;2024-03-25T11:43:00;98484.50;;;10.24;52.87
78431;BME280;67727;50.236;22.452;2024-03-25T11:45:27;98483.34;;;10.09;54.09
78431;BME280;67727;50.236;22.452;2024-03-25T11:47:54;98484.91;;;9.98;54.88
78431;BME280;67727;50.236;22.452;2024-03-25T11:50:21;98479.04;;;9.89;54.65
78431;BME280;67727;50.236;22.452;2024-03-25T11:52:47;98484.87;;;9.85;55.93
78431;BME280;67727;50.236;22.452;2024-03-25T11:55:18;98482.25;;;9.84;55.12
78431;BME280;67727;50.236;22.452;2024-03-25T11:57:45;98481.76;;;9.84;54.20
78431;BME280;67727;50.236;22.452;2024-03-25T12:00:12;98482.78;;;9.85;54.34
78431;BME280;67727;50.236;22.452;2024-03-25T12:02:47;98479.61;;;9.92;54.95
78431;BME280;67727;50.236;22.452;2024-03-25T12:05:15;98477.79;;;10.04;55.93
78431;BME280;67727;50.236;22.452;2024-03-25T12:07:42;98477.48;;;10.20;55.35
78431;BME280;67727;50.236;22.452;2024-03-25T12:10:09;98475.90;;;10.36;54.74
78431;BME280;67727;50.236;22.452;2024-03-25T12:12:55;98465.77;;;10.56;55.14
78431;BME280;67727;50.236;22.452;2024-03-25T12:15:22;98463.86;;;10.77;55.89
78431;BME280;67727;50.236;22.452;2024-03-25T12:17:49;98470.16;;;10.95;54.20
78431;BME280;67727;50.236;22.452;2024-03-25T12:20:19;98467.73;;;11.10;53.49
78431;BME280;67727;50.236;22.452;2024-03-25T12:22:48;98460.99;;;11.23;53.28
78431;BME280;67727;50.236;22.452;2024-03-25T12:25:15;98460.95;;;11.40;52.95
78431;BME280;67727;50.236;22.452;2024-03-25T12:27:45;98462.41;;;11.58;52.18
78431;BME280;67727;50.236;22.452;2024-03-25T12:30:13;98454.69;;;11.72;51.29
78431;BME280;67727;50.236;22.452;2024-03-25T12:32:41;98448.60;;;11.88;52.09
78431;BME280;67727;50.236;22.452;2024-03-25T12:35:10;98451.50;;;12.04;51.74
78431;BME280;67727;50.236;22.452;2024-03-25T12:37:39;98450.82;;;12.14;51.79
78431;BME280;67727;50.236;22.452;2024-03-25T12:40:07;98453.08;;;12.26;50.95
78431;BME280;67727;50.236;22.452;2024-03-25T12:42:35;98447.58;;;12.34;50.79
78431;BME280;67727;50.236;22.452;2024-03-25T12:45:03;98447.69;;;12.43;51.13
78431;BME280;67727;50.236;22.452;2024-03-25T12:47:30;98452.56;;;12.55;52.06
78431;BME280;67727;50.236;22.452;2024-03-25T12:49:58;98447.23;;;12.61;52.36
78431;BME280;67727;50.236;22.452;2024-03-25T12:52:25;98449.35;;;12.70;51.68
78431;BME280;67727;50.236;22.452;2024-03-25T12:54:52;98448.63;;;12.76;51.01
78431;BME280;67727;50.236;22.452;2024-03-25T12:57:19;98446.55;;;12.87;51.45
78431;BME280;67727;50.236;22.452;2024-03-25T12:59:46;98447.45;;;13.00;50.60
78431;BME280;67727;50.236;22.452;2024-03-25T13:02:13;98454.85;;;13.04;50.03
78431;BME280;67727;50.236;22.452;2024-03-25T13:04:40;98456.17;;;13.00;49.39